Time;durP1;ratioP1;P1;durP2;ratioP2;P2;SDS_P1;SDS_P2;PMS_P1;PMS_P2;Temp;Humidity;BMP_temperature;BMP_pressure;BME280_temperature;BME280_humidity;BME280_pressure;Samples;Min_cycle;Max_cycle;Signal;HPM_P1;HPM_P2
2022/07/10 00:00:11;;;;;;;3.50;3.20;;;;;;;19.68;54.50;96064.44;5114050;28;20122;-62
2022/07/10 00:02:38;;;;;;;5.85;3.08;;;;;;;19.67;55.00;96057.47;5114120;28;20495;-62
2022/07/10 00:05:06;;;;;;;4.22;3.17;;;;;;;19.69;54.37;96056.34;5113899;28;20051;-62
2022/07/10 00:07:33;;;;;;;6.43;3.17;;;;;;;19.64;54.46;96055.91;5113980;28;20401;-62
2022/07/10 00:10:02;;;;;;;3.83;3.42;;;;;;;19.64;54.77;96055.91;5113633;28;20073;-62
2022/07/10 00:12:29;;;;;;;4.80;3.42;;;;;;;19.59;55.15;96059.91;5113975;28;20043;-62
2022/07/10 00:14:56;;;;;;;3.47;3.17;;;;;;;19.58;55.04;96056.41;5113731;28;20058;-63
2022/07/10 00:17:23;;;;;;;4.28;3.33;;;;;;;19.57;55.34;96060.03;5113698;28;20511;-62
2022/07/10 00:19:50;;;;;;;3.40;3.10;;;;;;;19.53;55.43;96059.44;5113858;28;20055;-62
2022/07/10 00:22:17;;;;;;;6.57;3.70;;;;;;;19.52;55.68;96057.75;5113740;28;20074;-62
2022/07/10 00:24:46;;;;;;;3.10;2.90;;;;;;;19.44;56.28;96061.03;5113593;28;20575;-63
2022/07/10 00:27:14;;;;;;;3.47;3.17;;;;;;;19.37;56.14;96051.91;5113737;28;20044;-62
2022/07/10 00:29:41;;;;;;;3.58;3.28;;;;;;;19.34;56.47;96053.94;5113785;28;20489;-63
2022/07/10 00:32:08;;;;;;;4.25;3.40;;;;;;;19.27;56.55;96050.97;5113673;28;20053;-63
2022/07/10 00:34:36;;;;;;;3.20;3.00;;;;;;;19.20;56.45;96037.34;5113506;28;20097;-62
2022/07/10 00:37:04;;;;;;;4.47;3.75;;;;;;;19.12;57.01;96045.09;5113407;28;20134;-62
2022/07/10 00:39:31;;;;;;;4.38;3.97;;;;;;;19.09;57.51;96051.50;5113593;28;20070;-63
2022/07/10 00:42:07;;;;;;;5.60;4.15;;;;;;;19.06;57.45;96035.81;5113574;28;20492;-62
2022/07/10 00:44:36;;;;;;;5.90;4.13;;;;;;;19.08;57.61;96030.41;5113382;28;20121;-62
2022/07/10 00:47:04;;;;;;;6.15;3.95;;;;;;;19.13;57.90;96028.22;5113322;28;20047;-62
2022/07/10 00:49:31;;;;;;;4.85;4.30;;;;;;;19.08;58.32;96033.88;5113435;28;20054;-62
2022/07/10 00:52:00;;;;;;;5.88;3.67;;;;;;;19.13;57.78;96023.78;5113431;28;20481;-62
2022/07/10 00:54:28;;;;;;;8.48;3.67;;;;;;;19.17;57.69;96022.56;5113477;28;20446;-62
2022/07/10 00:56:55;;;;;;;7.60;4.03;;;;;;;19.18;58.57;96021.56;5113292;28;20070;-62
2022/07/10 00:59:23;;;;;;;5.07;3.92;;;;;;;19.19;58.26;96025.06;5113226;28;20051;-62
2022/07/10 01:01:52;;;;;;;8.52;4.03;;;;;;;19.19;58.70;96020.63;5113308;28;20047;-62
2022/07/10 01:04:19;;;;;;;8.13;3.72;;;;;;;19.22;58.62;96016.03;5113379;28;20058;-62
2022/07/10 01:06:46;;;;;;;4.18;3.72;;;;;;;19.15;58.99;96015.69;5113376;28;20102;-62
2022/07/10 01:09:13;;;;;;;4.65;4.13;;;;;;;19.13;58.84;96021.13;5113404;28;20481;-64
2022/07/10 01:11:41;;;;;;;5.05;4.18;;;;;;;19.13;58.93;96021.13;5113208;28;20050;-63
2022/07/10 01:14:08;;;;;;;4.47;4.07;;;;;;;19.14;59.22;96032.56;5113205;28;20545;-63
2022/07/10 01:16:35;;;;;;;3.95;3.63;;;;;;;19.14;58.85;96017.50;5113260;28;20048;-62
2022/07/10 01:19:06;;;;;;;5.10;3.78;;;;;;;19.13;58.98;96031.72;5113142;28;20040;-63
2022/07/10 01:21:36;;;;;;;6.65;4.30;;;;;;;19.16;58.80;96036.78;5113410;28;20054;-63
2022/07/10 01:24:07;;;;;;;3.80;3.42;;;;;;;19.15;59.17;96035.06;5117020;28;20054;-63
2022/07/10 01:26:34;;;;;;;3.97;3.60;;;;;;;19.13;58.71;96023.78;5116977;27;20047;-63
2022/07/10 01:29:06;;;;;;;5.20;3.88;;;;;;;19.16;58.81;96023.53;5117026;28;20122;-62
2022/07/10 01:31:34;;;;;;;4.07;3.78;;;;;;;19.22;58.58;96016.88;5116946;28;20052;-62
2022/07/10 01:34:03;;;;;;;3.72;3.42;;;;;;;19.19;58.56;96023.28;5116847;27;20043;-63
2022/07/10 01:36:31;;;;;;;4.03;3.72;;;;;;;19.25;57.96;96029.03;5116676;28;20047;-63
2022/07/10 01:39:00;;;;;;;3.85;3.42;;;;;;;19.28;57.65;96023.47;5116786;28;20052;-63
2022/07/10 01:41:27;;;;;;;3.70;3.40;;;;;;;19.28;57.87;96026.13;5116707;28;20052;-62
2022/07/10 01:43:55;;;;;;;8.10;3.65;;;;;;;19.32;58.00;96031.06;5116699;28;20481;-63
2022/07/10 01:46:22;;;;;;;3.63;3.33;;;;;;;19.29;58.17;96025.16;5116395;28;20105;-63
2022/07/10 01:48:49;;;;;;;4.88;3.17;;;;;;;19.32;57.77;96017.81;5116798;28;20120;-63
2022/07/10 01:51:17;;;;;;;5.40;3.33;;;;;;;19.38;57.79;96018.28;5116557;28;20048;-63
2022/07/10 01:53:44;;;;;;;3.90;3.60;;;;;;;19.37;57.80;96022.72;5116494;28;20097;-63
2022/07/10 01:56:14;;;;;;;3.88;3.25;;;;;;;19.36;57.64;96020.22;5116347;28;20054;-62
2022/07/10 01:58:42;;;;;;;3.70;3.40;;;;;;;19.32;57.59;96023.09;5116478;28;20055;-63
2022/07/10 02:01:09;;;;;;;3.60;3.30;;;;;;;19.32;57.79;96017.81;5116318;28;20046;-63
2022/07/10 02:06:21;;;;;;;3.75;3.45;;;;;;;19.32;57.62;96014.31;5116390;28;20136;-63
2022/07/10 02:08:48;;;;;;;3.55;3.25;;;;;;;19.32;57.85;96014.31;5116178;28;20438;-63
2022/07/10 02:11:16;;;;;;;4.03;3.47;;;;;;;19.19;58.47;96014.47;5116154;28;20120;-63
2022/07/10 02:13:43;;;;;;;4.15;3.80;;;;;;;19.12;58.67;96010.63;5116137;28;20480;-63
2022/07/10 02:16:11;;;;;;;8.15;3.63;;;;;;;19.10;58.28;96013.41;5116049;28;20073;-62
2022/07/10 02:18:39;;;;;;;4.22;3.75;;;;;;;19.09;58.98;96011.75;5115963;28;20400;-63
2022/07/10 02:21:07;;;;;;;3.92;3.60;;;;;;;19.07;58.42;96005.69;5115960;28;20078;-62
2022/07/10 02:23:34;;;;;;;4.00;3.58;;;;;;;18.95;59.17;96012.81;5116019;28;20051;-62
2022/07/10 02:26:02;;;;;;;3.65;3.35;;;;;;;18.76;59.18;96011.66;5115947;28;20055;-63
2022/07/10 02:28:30;;;;;;;4.60;4.20;;;;;;;18.75;59.54;96012.59;5115914;28;20051;-63
2022/07/10 02:30:58;;;;;;;4.45;4.00;;;;;;;18.78;59.34;96009.72;5115781;28;20043;-63
2022/07/10 02:33:25;;;;;;;5.57;4.00;;;;;;;18.79;59.40;96008.72;5115670;28;20047;-63
2022/07/10 02:35:52;;;;;;;4.03;3.72;;;;;;;18.80;59.37;95994.53;5115786;28;20108;-63
2022/07/10 02:38:19;;;;;;;4.80;3.92;;;;;;;18.80;59.19;95994.53;5115422;28;20069;-63
2022/07/10 02:40:46;;;;;;;5.68;3.45;;;;;;;18.86;59.36;95995.84;5115539;28;20052;-63
2022/07/10 02:43:13;;;;;;;4.72;3.63;;;;;;;18.82;59.63;95997.06;5115646;28;20052;-62
2022/07/10 02:45:42;;;;;;;5.65;3.95;;;;;;;18.72;59.97;95991.66;5115277;28;20051;-63
2022/07/10 02:48:09;;;;;;;3.50;3.20;;;;;;;18.65;60.00;95995.75;5115409;28;20079;-62
2022/07/10 02:50:36;;;;;;;4.50;3.90;;;;;;;18.53;60.11;95990.47;5115313;28;20055;-63
2022/07/10 02:53:03;;;;;;;4.00;3.70;;;;;;;18.54;60.43;95991.31;5115219;28;20039;-62
2022/07/10 02:55:32;;;;;;;4.15;3.40;;;;;;;18.53;60.44;95984.34;5115221;28;20040;-63
2022/07/10 02:58:00;;;;;;;5.80;3.80;;;;;;;18.53;60.53;95986.97;5115101;28;20480;-62
2022/07/10 03:00:27;;;;;;;3.92;3.63;;;;;;;18.55;60.43;95998.31;5115157;28;20043;-62
2022/07/10 03:02:56;;;;;;;4.45;3.60;;;;;;;18.51;60.50;95997.69;5115159;28;20044;-63
2022/07/10 03:05:23;;;;;;;7.15;3.72;;;;;;;18.52;60.25;96003.84;5115023;28;20071;-63
2022/07/10 03:07:50;;;;;;;4.10;3.70;;;;;;;18.58;60.40;96018.41;5115070;28;20044;-63
2022/07/10 03:10:18;;;;;;;7.00;3.75;;;;;;;18.58;60.37;96015.75;5115029;27;20058;-62
2022/07/10 03:12:45;;;;;;;3.63;3.30;;;;;;;18.58;60.28;96013.94;5114914;28;20052;-63
2022/07/10 03:15:12;;;;;;;5.60;3.60;;;;;;;18.59;60.44;96020.06;5115034;28;20047;-63
2022/07/10 03:17:40;;;;;;;6.35;3.83;;;;;;;18.61;60.62;96031.41;5114820;28;20132;-63
2022/07/10 03:20:10;;;;;;;6.97;3.72;;;;;;;18.60;60.21;96027.06;5114734;28;20137;-63
2022/07/10 03:22:37;;;;;;;3.80;3.50;;;;;;;18.61;60.59;96034.03;5114761;28;20051;-63
2022/07/10 03:25:05;;;;;;;4.00;3.70;;;;;;;18.67;60.33;96026.44;5114653;28;20485;-62
2022/07/10 03:27:32;;;;;;;4.45;3.60;;;;;;;18.63;60.41;96032.13;5114533;28;20055;-62
2022/07/10 03:29:59;;;;;;;4.45;3.83;;;;;;;18.66;60.30;96038.00;5114661;28;20501;-63
2022/07/10 03:32:26;;;;;;;4.47;3.92;;;;;;;18.64;60.78;96034.66;5114658;28;20089;-63
2022/07/10 03:34:53;;;;;;;6.10;3.20;;;;;;;18.59;60.86;96035.97;5114564;28;20058;-63
2022/07/10 03:37:22;;;;;;;3.55;3.25;;;;;;;18.65;61.03;96032.84;5114503;28;20043;-63
2022/07/10 03:39:49;;;;;;;3.60;3.30;;;;;;;18.71;60.77;96029.72;5114306;28;20108;-62
2022/07/10 03:42:16;;;;;;;4.95;3.55;;;;;;;18.70;60.94;96030.69;5114339;28;20050;-62
2022/07/10 03:44:43;;;;;;;3.35;3.13;;;;;;;18.67;60.60;96026.44;5113869;28;20044;-63
2022/07/10 03:47:11;;;;;;;3.33;3.10;;;;;;;18.72;60.80;96019.97;5114132;28;20497;-62
2022/07/10 03:49:38;;;;;;;3.60;3.30;;;;;;;18.76;60.55;96022.25;5114149;28;20523;-62
2022/07/10 03:52:06;;;;;;;4.35;3.40;;;;;;;18.75;60.26;96017.91;5114148;28;20127;-62
2022/07/10 03:54:35;;;;;;;5.35;3.75;;;;;;;18.75;61.06;96022.38;5114139;28;20439;-62
2022/07/10 03:59:46;;;;;;;4.05;3.75;;;;;;;18.79;60.69;96024.63;5114073;28;20092;-62
2022/07/10 04:02:13;;;;;;;4.18;3.75;;;;;;;18.81;60.86;96024.50;5114009;28;20040;-63
2022/07/10 04:04:40;;;;;;;4.05;3.28;;;;;;;18.82;61.14;96020.91;5114108;28;20043;-63
2022/07/10 04:07:08;;;;;;;4.30;3.90;;;;;;;18.79;61.01;96029.94;5114009;28;20055;-62
2022/07/10 04:09:36;;;;;;;4.88;3.88;;;;;;;18.78;61.02;96027.44;5113994;28;20131;-63
2022/07/10 04:12:03;;;;;;;5.00;3.90;;;;;;;18.66;61.49;96035.38;5113864;28;20044;-63
2022/07/10 04:14:30;;;;;;;4.18;3.83;;;;;;;18.75;61.21;96044.38;5113960;28;20158;-63
2022/07/10 04:16:57;;;;;;;4.00;3.70;;;;;;;18.86;61.28;96045.34;5113838;28;20076;-63
2022/07/10 04:19:24;;;;;;;3.25;3.05;;;;;;;19.01;61.40;96040.63;5113720;28;20044;-63
2022/07/10 04:21:51;;;;;;;4.03;3.65;;;;;;;19.06;61.92;96036.63;5113729;28;20091;-63
2022/07/10 04:24:18;;;;;;;6.15;3.92;;;;;;;19.23;62.06;96050.34;5113861;28;20171;-63
2022/07/10 04:26:47;;;;;;;4.05;3.65;;;;;;;19.70;61.36;96044.78;5113786;28;20097;-63
2022/07/10 04:29:14;;;;;;;4.05;3.28;;;;;;;20.06;59.79;96051.63;5113644;28;20048;-63
2022/07/10 04:31:41;;;;;;;4.30;3.15;;;;;;;20.26;59.31;96054.41;5113550;28;20063;-62
2022/07/10 04:34:08;;;;;;;4.65;3.40;;;;;;;20.30;57.25;96061.97;5113700;28;20086;-63
2022/07/10 04:36:35;;;;;;;4.25;3.85;;;;;;;20.07;57.77;96046.19;5113632;28;20086;-63
2022/07/10 04:39:03;;;;;;;5.45;3.47;;;;;;;20.09;59.12;96051.38;5113572;28;20070;-63
2022/07/10 04:41:30;;;;;;;3.53;3.22;;;;;;;19.95;58.98;96049.84;5113694;28;20048;-63
2022/07/10 04:43:58;;;;;;;3.88;3.58;;;;;;;19.90;58.73;96050.22;5113662;28;20256;-63
2022/07/10 04:46:25;;;;;;;3.83;3.42;;;;;;;19.79;59.94;96055.59;5113202;28;20044;-63
2022/07/10 04:48:52;;;;;;;5.18;3.70;;;;;;;19.73;59.97;96053.44;5113438;28;20126;-63
2022/07/10 04:51:20;;;;;;;3.97;3.47;;;;;;;19.79;60.19;96058.25;5113352;28;20501;-62
2022/07/10 04:53:47;;;;;;;6.65;3.88;;;;;;;19.99;60.68;96059.25;5113396;28;20048;-62
2022/07/10 04:56:14;;;;;;;5.55;3.72;;;;;;;20.44;59.91;96062.63;5113381;28;20441;-63
2022/07/10 04:58:42;;;;;;;3.58;3.28;;;;;;;20.64;58.13;96063.53;5117095;28;20083;-63
2022/07/10 05:01:10;;;;;;;4.22;3.42;;;;;;;20.70;58.60;96055.03;5117482;28;20050;-63
2022/07/10 05:03:37;;;;;;;3.78;3.20;;;;;;;20.90;58.28;96047.19;5117420;28;20040;-63
2022/07/10 05:06:05;;;;;;;3.42;3.13;;;;;;;21.35;58.50;96058.31;5117340;28;20416;-63
2022/07/10 05:08:32;;;;;;;6.53;3.38;;;;;;;21.49;56.19;96049.09;5117520;28;20056;-63
2022/07/10 05:10:59;;;;;;;3.72;3.22;;;;;;;21.74;55.13;96052.19;5117257;28;20075;-63
2022/07/10 05:13:27;;;;;;;4.05;3.55;;;;;;;22.16;55.30;96055.53;5117279;28;20047;-63
2022/07/10 05:15:54;;;;;;;3.40;3.10;;;;;;;22.31;53.87;96056.75;5117117;28;20054;-63
2022/07/10 05:18:23;;;;;;;3.92;3.58;;;;;;;22.35;54.18;96054.66;5117048;28;20047;-63
2022/07/10 05:20:50;;;;;;;3.15;2.85;;;;;;;22.76;52.39;96056.25;5117397;28;20043;-63
2022/07/10 05:23:18;;;;;;;3.13;2.70;;;;;;;23.00;50.09;96066.38;5117162;28;20497;-63
2022/07/10 05:25:45;;;;;;;3.92;3.08;;;;;;;23.36;49.57;96060.28;5117043;28;20052;-63
2022/07/10 05:28:14;;;;;;;5.57;3.40;;;;;;;23.79;50.70;96065.03;5116988;28;20051;-63
2022/07/10 05:30:41;;;;;;;4.72;3.30;;;;;;;24.23;46.99;96067.75;5117125;28;20082;-63
2022/07/10 05:33:09;;;;;;;6.35;2.70;;;;;;;24.43;46.62;96066.72;5116910;28;20050;-63
2022/07/10 05:35:37;;;;;;;2.70;2.50;;;;;;;24.40;45.22;96065.19;5116831;28;20051;-63
2022/07/10 05:38:05;;;;;;;7.93;2.90;;;;;;;24.44;46.67;96060.41;5116647;28;20127;-63
2022/07/10 05:40:32;;;;;;;7.70;2.97;;;;;;;24.35;47.35;96059.50;5116700;28;20043;-63
2022/07/10 05:43:00;;;;;;;3.33;2.65;;;;;;;24.14;47.18;96055.34;5116656;28;20079;-63
2022/07/10 05:45:27;;;;;;;3.05;2.70;;;;;;;23.98;47.67;96050.69;5116372;28;20535;-63
2022/07/10 05:47:55;;;;;;;7.15;3.75;;;;;;;23.84;48.00;96057.44;5116588;28;20048;-63
2022/07/10 05:50:22;;;;;;;5.60;2.60;;;;;;;23.71;49.07;96058.63;5116641;28;20089;-63
2022/07/10 05:52:51;;;;;;;3.97;3.20;;;;;;;23.64;48.50;96060.25;5116619;28;20097;-63
2022/07/10 05:55:18;;;;;;;3.35;3.05;;;;;;;23.60;48.22;96061.53;5116413;28;20047;-63
2022/07/10 05:57:46;;;;;;;2.97;2.67;;;;;;;23.45;47.75;96070.06;5116433;28;20108;-63
2022/07/10 06:00:13;;;;;;;3.33;3.03;;;;;;;23.33;48.94;96058.72;5116595;28;20047;-63
2022/07/10 06:02:40;;;;;;;6.30;3.10;;;;;;;23.14;48.84;96062.34;5116475;27;20047;-63
2022/07/10 06:05:09;;;;;;;9.32;3.05;;;;;;;23.14;50.08;96069.53;5116399;28;20040;-62
2022/07/10 06:07:36;;;;;;;5.00;2.88;;;;;;;23.18;48.85;96066.41;5115832;28;20048;-63
2022/07/10 06:10:06;;;;;;;4.25;3.05;;;;;;;23.09;49.11;96064.66;5116207;28;20047;-63
2022/07/10 06:12:34;;;;;;;4.05;3.55;;;;;;;23.19;49.89;96076.09;5116229;28;20052;-62
2022/07/10 06:15:01;;;;;;;3.90;3.13;;;;;;;23.10;49.24;96059.16;5116021;28;20052;-63
2022/07/10 06:17:28;;;;;;;7.97;3.42;;;;;;;23.10;48.18;96066.31;5115897;28;20410;-63
2022/07/10 06:19:55;;;;;;;3.25;2.95;;;;;;;23.11;49.42;96068.00;5116133;28;20086;-62
2022/07/10 06:22:32;;;;;;;4.13;3.17;;;;;;;23.21;48.34;96068.78;5116070;28;20040;-62
2022/07/10 06:24:59;;;;;;;5.15;2.60;;;;;;;23.42;47.88;96070.34;5115896;28;20048;-63
2022/07/10 06:27:29;;;;;;;3.25;2.92;;;;;;;23.32;45.73;96066.88;5115950;28;20047;-63
2022/07/10 06:29:57;;;;;;;5.70;2.92;;;;;;;23.43;47.64;96068.53;5115959;28;20044;-63
2022/07/10 06:32:25;;;;;;;6.68;2.80;;;;;;;23.71;46.07;96061.31;5116025;28;20070;-63
2022/07/10 06:34:52;;;;;;;5.65;2.78;;;;;;;23.88;45.00;96063.28;5115713;28;20370;-62
2022/07/10 06:37:20;;;;;;;3.15;2.90;;;;;;;24.43;46.58;96069.38;5115726;28;20051;-62
2022/07/10 06:39:48;;;;;;;2.95;2.65;;;;;;;24.58;43.69;96069.66;5115652;28;20052;-62
2022/07/10 06:42:15;;;;;;;5.65;2.90;;;;;;;24.90;44.37;96070.03;5115814;28;20048;-62
2022/07/10 06:44:45;;;;;;;4.00;2.67;;;;;;;25.73;43.72;96067.59;5115534;28;20047;-62
2022/07/10 06:49:59;;;;;;;5.35;2.38;;;;;;;26.26;42.55;96069.97;5115475;28;20412;-62
2022/07/10 06:52:27;;;;;;;5.05;2.50;;;;;;;26.39;40.88;96076.69;5115524;28;20104;-63
2022/07/10 06:54:54;;;;;;;2.70;2.50;;;;;;;26.58;40.82;96084.34;5115217;28;20052;-62
2022/07/10 06:57:22;;;;;;;2.85;2.65;;;;;;;26.75;39.67;96085.16;5115273;28;20040;-62
2022/07/10 06:59:51;;;;;;;5.82;2.67;;;;;;;26.68;40.44;96080.63;5115224;28;20062;-62
2022/07/10 07:02:18;;;;;;;3.55;2.35;;;;;;;26.59;40.92;96083.34;5115227;28;20146;-62
2022/07/10 07:04:45;;;;;;;7.18;2.88;;;;;;;26.75;39.56;96087.84;5115113;28;20104;-62
2022/07/10 07:07:13;;;;;;;3.33;2.40;;;;;;;26.72;40.96;96077.44;5115083;28;20047;-62
2022/07/10 07:09:42;;;;;;;2.97;2.63;;;;;;;26.74;40.78;96075.44;5114941;28;20039;-62
2022/07/10 07:12:09;;;;;;;6.30;2.10;;;;;;;26.61;39.86;96081.31;5115052;28;20143;-63
2022/07/10 07:14:37;;;;;;;3.35;2.42;;;;;;;26.68;40.66;96084.16;5114968;28;20489;-63
2022/07/10 07:17:11;;;;;;;4.65;2.67;;;;;;;26.57;40.42;96087.19;5114798;28;20066;-63
2022/07/10 07:25:06;;;;;;;3.35;2.65;;;;;;;26.00;41.48;96079.00;5080766;28;20039;-63
2022/07/10 07:27:35;;;;;;;9.40;2.92;;;;;;;25.77;41.94;96078.81;5114548;28;20040;-63
2022/07/10 07:30:06;;;;;;;5.75;3.00;;;;;;;25.72;41.96;96082.00;5114525;28;20493;-62
2022/07/10 07:32:35;;;;;;;9.18;2.80;;;;;;;25.68;42.02;96083.34;5114537;28;20043;-63
2022/07/10 07:35:05;;;;;;;3.03;2.33;;;;;;;25.63;41.50;96085.66;5114427;28;20078;-62
2022/07/10 07:37:42;;;;;;;4.28;2.92;;;;;;;25.49;42.25;96091.47;5114608;28;20044;-63
2022/07/10 07:40:12;;;;;;;3.70;2.58;;;;;;;25.53;42.40;96089.31;5114361;28;20044;-63
2022/07/10 07:42:40;;;;;;;7.05;2.83;;;;;;;25.52;42.30;96087.63;5114529;28;20378;-62
2022/07/10 07:45:10;;;;;;;4.88;2.80;;;;;;;25.46;42.86;96089.09;5114231;28;20497;-62
2022/07/10 07:47:45;;;;;;;3.40;2.95;;;;;;;25.36;42.23;96086.59;5114051;28;20044;-63
2022/07/10 07:50:15;;;;;;;5.10;2.70;;;;;;;25.15;42.96;96080.81;5114305;28;20121;-62
2022/07/10 07:52:43;;;;;;;4.78;2.95;;;;;;;25.03;43.58;96083.78;5114243;28;20086;-62
2022/07/10 07:55:12;;;;;;;4.60;3.20;;;;;;;25.05;44.49;96081.78;5114149;27;20058;-63
2022/07/10 07:57:40;;;;;;;3.72;2.67;;;;;;;24.93;43.87;96083.06;5114089;28;20101;-62
2022/07/10 08:00:10;;;;;;;5.50;2.90;;;;;;;24.72;44.71;96085.09;5114000;28;20054;-62
2022/07/10 08:02:38;;;;;;;3.15;2.78;;;;;;;24.70;44.78;96087.09;5113912;28;20056;-63
2022/07/10 08:05:09;;;;;;;3.95;2.83;;;;;;;24.85;45.29;96097.19;5114085;28;20043;-62
2022/07/10 08:07:39;;;;;;;3.95;2.97;;;;;;;24.98;43.53;96091.44;5113971;28;20047;-63
2022/07/10 08:10:10;;;;;;;3.10;2.83;;;;;;;24.78;43.81;96094.34;5113978;28;20493;-63
2022/07/10 08:12:38;;;;;;;;;;;;;;;24.50;45.11;96091.00;5114450;28;20096;-63
2022/07/10 08:15:08;;;;;;;4.78;3.00;;;;;;;24.25;45.20;96090.81;5113894;28;19920;-62
2022/07/10 08:17:35;;;;;;;4.07;3.22;;;;;;;24.34;44.55;96087.19;5113787;28;20048;-63
2022/07/10 08:20:02;;;;;;;4.63;2.95;;;;;;;24.39;45.16;96084.91;5113849;28;20075;-63
2022/07/10 08:22:31;;;;;;;2.80;2.55;;;;;;;24.54;44.98;96089.69;5113768;28;20043;-63
2022/07/10 08:24:59;;;;;;;5.13;2.70;;;;;;;24.76;44.70;96085.63;5113832;28;20047;-63
2022/07/10 08:27:26;;;;;;;3.92;2.83;;;;;;;25.20;43.75;96084.66;5113855;28;20382;-63
2022/07/10 08:29:53;;;;;;;3.03;2.53;;;;;;;26.10;41.79;96084.22;5113782;28;20051;-62
2022/07/10 08:32:23;;;;;;;4.72;2.40;;;;;;;27.03;39.52;96085.78;5113498;28;20073;-62
2022/07/10 08:34:50;;;;;;;4.03;2.50;;;;;;;27.55;38.03;96078.13;5113416;28;20056;-62
2022/07/10 08:37:19;;;;;;;3.17;2.40;;;;;;;27.16;38.95;96075.31;5113332;28;20092;-62
2022/07/10 08:39:48;;;;;;;3.35;2.63;;;;;;;27.31;39.18;96083.47;5113155;28;20048;-62
2022/07/10 08:42:17;;;;;;;3.20;2.90;;;;;;;27.39;37.69;96077.19;5113510;28;20056;-62
2022/07/10 08:44:45;;;;;;;10.95;3.08;;;;;;;27.15;37.94;96080.84;5113117;28;20067;-62
2022/07/10 08:47:14;;;;;;;4.90;2.58;;;;;;;27.35;38.66;96081.25;5112781;28;20075;-63
2022/07/10 08:49:48;;;;;;;2.92;2.40;;;;;;;27.24;38.09;96080.63;5111932;28;20042;-63
2022/07/10 08:52:26;;;;;;;6.63;2.63;;;;;;;27.10;38.42;96089.44;5112923;28;20409;-63
2022/07/10 08:54:56;;;;;;;2.88;2.60;;;;;;;26.96;39.03;96089.09;5113065;28;20052;-62
2022/07/10 08:57:24;;;;;;;3.72;2.50;;;;;;;26.71;38.63;96085.66;5113489;28;20047;-63
2022/07/10 08:59:53;;;;;;;4.82;2.50;;;;;;;26.51;39.76;96101.31;5113304;28;20554;-62
2022/07/10 09:02:21;;;;;;;3.40;2.85;;;;;;;26.12;40.72;96099.09;5113367;28;20051;-62
2022/07/10 09:04:48;;;;;;;7.38;2.60;;;;;;;26.11;40.91;96092.09;5113352;28;20455;-62
2022/07/10 09:07:17;;;;;;;2.65;2.40;;;;;;;26.03;40.87;96085.88;5113325;28;20409;-62
2022/07/10 09:09:56;;;;;;;9.02;3.28;;;;;;;25.86;40.89;96091.22;5113385;28;20485;-63
2022/07/10 09:12:24;;;;;;;2.80;2.55;;;;;;;25.50;40.89;96089.63;5113206;28;20039;-62
2022/07/10 09:14:51;;;;;;;4.10;2.75;;;;;;;25.52;42.15;96094.81;5113474;28;20044;-62
2022/07/10 09:17:19;;;;;;;4.53;2.60;;;;;;;25.76;42.35;96093.22;5113271;28;20047;-62
2022/07/10 09:19:46;;;;;;;3.30;2.90;;;;;;;26.01;40.73;96087.88;5113143;28;20134;-62
2022/07/10 09:22:14;;;;;;;3.55;2.38;;;;;;;26.09;41.05;96091.41;5113352;28;20123;-62
2022/07/10 09:24:43;;;;;;;3.47;2.42;;;;;;;26.49;40.90;96083.53;5113160;28;20131;-62
2022/07/10 09:27:14;;;;;;;3.15;2.40;;;;;;;26.69;40.80;96090.34;5113090;28;20130;-62
2022/07/10 09:29:51;;;;;;;6.50;2.92;;;;;;;26.52;40.60;96092.25;5113108;28;20079;-62
2022/07/10 09:32:19;;;;;;;3.08;2.50;;;;;;;26.41;39.22;96094.28;5113028;28;20585;-62
2022/07/10 09:34:48;;;;;;;3.58;2.30;;;;;;;26.44;39.73;96090.41;5113037;28;20048;-62
2022/07/10 09:37:22;;;;;;;8.73;3.00;;;;;;;26.36;40.60;96096.59;5113039;28;20044;-62
2022/07/10 09:39:57;;;;;;;4.63;2.47;;;;;;;26.35;39.15;96092.25;5112942;28;20043;-62
2022/07/10 09:42:37;;;;;;;4.03;2.72;;;;;;;26.32;39.74;96098.81;5113001;28;20043;-62
2022/07/10 09:45:21;;;;;;;4.40;2.25;;;;;;;26.20;39.97;96106.31;5116832;28;20098;-62
2022/07/10 09:47:57;;;;;;;7.72;2.70;;;;;;;26.05;39.78;96103.47;5116700;28;20047;-62
2022/07/10 09:50:26;;;;;;;3.70;2.67;;;;;;;26.06;39.49;96115.00;5116611;28;20040;-62
2022/07/10 09:52:55;;;;;;;7.15;2.60;;;;;;;26.02;40.50;96113.66;5116529;28;20400;-62
2022/07/10 09:55:26;;;;;;;4.38;2.63;;;;;;;26.05;41.25;96103.47;5116258;28;20047;-62
2022/07/10 09:57:57;;;;;;;5.82;3.05;;;;;;;25.98;40.60;96108.63;5116462;28;20043;-62
2022/07/10 10:00:26;;;;;;;3.92;2.95;;;;;;;25.91;39.80;96112.97;5116169;28;20398;-62
2022/07/10 10:02:59;;;;;;;3.42;2.78;;;;;;;25.88;40.04;96113.31;5116347;28;20043;-62
2022/07/10 10:05:38;;;;;;;3.15;2.83;;;;;;;25.97;41.08;96106.97;5116321;28;20101;-62
2022/07/10 10:08:13;;;;;;;2.85;2.58;;;;;;;26.05;39.72;96100.78;5116371;28;20127;-62
2022/07/10 10:10:47;;;;;;;6.45;3.38;;;;;;;26.14;39.56;96095.41;5116234;28;20101;-62
2022/07/10 10:13:18;;;;;;;6.95;2.67;;;;;;;26.30;39.57;96092.75;5116158;28;20504;-62
2022/07/10 10:15:48;;;;;;;4.13;2.40;;;;;;;26.42;38.90;96082.53;5116136;28;20047;-62
2022/07/10 10:18:20;;;;;;;5.88;2.63;;;;;;;26.48;40.11;96086.38;5116393;28;20067;-62
2022/07/10 10:20:48;;;;;;;4.97;2.95;;;;;;;26.53;39.16;96092.06;5115820;28;20052;-62
2022/07/10 10:23:20;;;;;;;3.40;2.78;;;;;;;26.51;38.69;96099.44;5115830;27;20044;-62
2022/07/10 10:25:48;;;;;;;6.53;3.15;;;;;;;26.41;38.04;96096.94;5115926;28;20090;-62
2022/07/10 10:28:23;;;;;;;3.65;2.92;;;;;;;26.41;39.05;96094.28;5115912;28;20047;-62
2022/07/10 10:30:53;;;;;;;5.10;2.58;;;;;;;26.31;38.90;96088.25;5115855;28;20550;-62
2022/07/10 10:33:44;;;;;;;7.97;3.00;;;;;;;26.39;38.70;96090.91;5115778;28;20070;-62
2022/07/10 10:36:14;;;;;;;7.13;2.95;;;;;;;26.41;38.63;96090.75;5115699;28;20052;-62
2022/07/10 10:39:06;;;;;;;3.37;2.73;;;;;;;26.56;39.50;96085.53;5115745;28;20401;-62
2022/07/10 10:41:39;;;;;;;5.97;3.17;;;;;;;26.78;39.84;96086.66;5115526;28;20390;-63
2022/07/10 10:44:29;;;;;;;3.92;2.97;;;;;;;26.87;38.80;96082.94;5115481;28;20047;-62
2022/07/10 10:47:09;;;;;;;4.78;3.58;;;;;;;27.00;38.38;96086.97;5115236;28;20051;-62
2022/07/10 10:50:01;;;;;;;4.30;3.90;;;;;;;27.10;37.56;96078.69;5115401;28;20044;-62
2022/07/10 10:52:29;;;;;;;6.32;3.40;;;;;;;27.01;38.16;96083.25;5115644;28;20048;-63
2022/07/10 10:55:11;;;;;;;4.18;3.67;;;;;;;26.86;38.72;96093.84;5115459;28;20093;-62
2022/07/10 10:57:47;;;;;;;5.00;3.35;;;;;;;26.68;38.99;96081.50;5115325;28;20062;-62
2022/07/10 11:00:37;;;;;;;4.28;3.83;;;;;;;26.68;40.02;96086.84;5115060;28;20378;-62
2022/07/10 11:03:17;;;;;;;6.35;3.97;;;;;;;26.92;38.11;96081.56;5115198;28;20477;-62
2022/07/10 11:05:46;;;;;;;6.25;3.83;;;;;;;27.10;38.04;96082.22;5115342;28;20484;-62
2022/07/10 11:08:15;;;;;;;6.10;4.13;;;;;;;27.28;38.32;96072.22;5115226;27;20054;-62
2022/07/10 11:10:44;;;;;;;4.95;4.45;;;;;;;27.42;38.39;96079.53;5115103;28;20076;-62
2022/07/10 11:13:12;;;;;;;5.45;4.95;;;;;;;27.46;38.98;96078.19;5115140;28;20051;-62
2022/07/10 11:15:43;;;;;;;5.72;5.22;;;;;;;27.40;39.10;96088.78;5114899;28;20508;-62
2022/07/10 11:18:12;;;;;;;6.55;5.85;;;;;;;27.29;38.31;96084.63;5114850;28;20055;-62
2022/07/10 11:20:41;;;;;;;5.90;5.35;;;;;;;27.14;38.99;96085.38;5114959;28;20051;-62
2022/07/10 11:23:38;;;;;;;8.18;5.90;;;;;;;26.92;38.80;96078.88;5114842;28;20047;-62
2022/07/10 11:26:10;;;;;;;7.50;5.40;;;;;;;26.92;39.52;96076.22;5094200;28;20443;-62
2022/07/10 11:28:47;;;;;;;5.57;4.65;;;;;;;27.00;39.99;96073.53;5114629;28;20052;-62
2022/07/10 11:31:16;;;;;;;7.10;4.63;;;;;;;26.83;40.18;96070.03;5114673;28;20485;-62
2022/07/10 11:33:46;;;;;;;4.82;4.38;;;;;;;26.90;40.86;96062.16;5114717;28;20044;-62
2022/07/10 11:36:14;;;;;;;5.93;4.63;;;;;;;26.85;40.14;96073.41;5114741;28;20043;-62
2022/07/10 11:38:42;;;;;;;5.70;4.72;;;;;;;26.83;41.19;96070.03;5114623;28;20092;-62
2022/07/10 11:41:19;;;;;;;7.30;5.03;;;;;;;26.86;40.49;96069.69;5114320;28;20043;-62
2022/07/10 11:43:51;;;;;;;5.32;4.93;;;;;;;26.92;41.00;96065.47;5114411;28;20404;-62
2022/07/10 11:46:21;;;;;;;4.72;4.30;;;;;;;26.79;40.92;96066.84;5114078;27;20479;-62
2022/07/10 11:48:49;;;;;;;;;;;;;;;26.73;40.85;96072.94;5114651;28;20047;-62
2022/07/10 11:51:27;;;;;;;5.10;4.70;;;;;;;26.61;41.33;96067.09;5114281;28;20357;-62
2022/07/10 11:54:02;;;;;;;5.15;4.65;;;;;;;26.65;41.52;96063.06;5114250;28;20101;-62
2022/07/10 11:56:33;;;;;;;5.40;4.78;;;;;;;26.70;41.67;96067.91;5114255;28;20047;-62